sensor_id;sensor_type;location;lat;lon;timestamp;pressure;altitude;pressure_sealevel;temperature;humidity
72525;BME280;60547;48.502;8.996;2023-04-29T00:00:41;97592.13;;;10.75;100.00
72525;BME280;60547;48.502;8.996;2023-04-29T00:03:07;97606.72;;;10.92;100.00
72525;BME280;60547;48.502;8.996;2023-04-29T00:05:32;97604.81;;;10.89;100.00
72525;BME280;60547;48.502;8.996;2023-04-29T00:07:58;97608.72;;;10.91;100.00
72525;BME280;60547;48.502;8.996;2023-04-29T00:10:23;97616.41;;;11.00;100.00
72525;BME280;60547;48.502;8.996;2023-04-29T00:12:49;97622.75;;;11.00;100.00
72525;BME280;60547;48.502;8.996;2023-04-29T00:15:16;97624.19;;;11.05;100.00
72525;BME280;60547;48.502;8.996;2023-04-29T00:17:41;97618.19;;;10.94;100.00
72525;BME280;60547;48.502;8.996;2023-04-29T00:20:08;97611.84;;;10.93;100.00
72525;BME280;60547;48.502;8.996;2023-04-29T00:22:34;97614.84;;;10.86;100.00
72525;BME280;60547;48.502;8.996;2023-04-29T00:25:00;97607.28;;;10.87;100.00
72525;BME280;60547;48.502;8.996;2023-04-29T00:27:25;97584.56;;;10.76;100.00
72525;BME280;60547;48.502;8.996;2023-04-29T00:29:52;97629.66;;;10.96;100.00
72525;BME280;60547;48.502;8.996;2023-04-29T00:32:18;97616.19;;;10.82;100.00
72525;BME280;60547;48.502;8.996;2023-04-29T00:34:43;97600.59;;;10.72;100.00
72525;BME280;60547;48.502;8.996;2023-04-29T00:37:08;97568.06;;;10.43;100.00
72525;BME280;60547;48.502;8.996;2023-04-29T00:39:34;97605.03;;;10.56;100.00
72525;BME280;60547;48.502;8.996;2023-04-29T00:41:59;97603.13;;;10.53;100.00
72525;BME280;60547;48.502;8.996;2023-04-29T00:44:25;97636.75;;;10.72;100.00
72525;BME280;60547;48.502;8.996;2023-04-29T00:46:50;97588.31;;;10.31;100.00
72525;BME280;60547;48.502;8.996;2023-04-29T00:49:16;97607.91;;;10.40;100.00
72525;BME280;60547;48.502;8.996;2023-04-29T00:51:42;97627.28;;;10.56;100.00
72525;BME280;60547;48.502;8.996;2023-04-29T00:54:09;97634.31;;;10.61;100.00
72525;BME280;60547;48.502;8.996;2023-04-29T00:56:36;97624.38;;;10.47;100.00
72525;BME280;60547;48.502;8.996;2023-04-29T00:59:03;97632.50;;;10.54;100.00
72525;BME280;60547;48.502;8.996;2023-04-29T01:01:29;97635.28;;;10.54;100.00
72525;BME280;60547;48.502;8.996;2023-04-29T01:03:56;97574.13;;;10.13;100.00
72525;BME280;60547;48.502;8.996;2023-04-29T01:12:10;97613.69;;;10.33;100.00
72525;BME280;60547;48.502;8.996;2023-04-29T01:14:42;97615.56;;;10.36;100.00
72525;BME280;60547;48.502;8.996;2023-04-29T01:17:16;97628.16;;;10.41;100.00
72525;BME280;60547;48.502;8.996;2023-04-29T01:19:47;97632.25;;;10.36;100.00
72525;BME280;60547;48.502;8.996;2023-04-29T01:22:14;97573.66;;;10.01;100.00
72525;BME280;60547;48.502;8.996;2023-04-29T01:24:42;97584.56;;;10.09;100.00
72525;BME280;60547;48.502;8.996;2023-04-29T01:27:23;97625.47;;;10.37;100.00
72525;BME280;60547;48.502;8.996;2023-04-29T01:29:59;97628.81;;;10.32;100.00
72525;BME280;60547;48.502;8.996;2023-04-29T01:32:59;97611.66;;;10.21;100.00
72525;BME280;60547;48.502;8.996;2023-04-29T01:35:44;97610.09;;;10.20;100.00
72525;BME280;60547;48.502;8.996;2023-04-29T01:38:22;97612.00;;;10.23;100.00
72525;BME280;60547;48.502;8.996;2023-04-29T01:41:22;97623.91;;;10.36;100.00
72525;BME280;60547;48.502;8.996;2023-04-29T01:43:51;97604.44;;;10.23;100.00
72525;BME280;60547;48.502;8.996;2023-04-29T01:46:17;97622.81;;;10.46;100.00
72525;BME280;60547;48.502;8.996;2023-04-29T01:48:43;97616.78;;;10.35;100.00
72525;BME280;60547;48.502;8.996;2023-04-29T01:51:09;97577.31;;;9.98;100.00
72525;BME280;60547;48.502;8.996;2023-04-29T01:53:35;97590.91;;;10.09;100.00
72525;BME280;60547;48.502;8.996;2023-04-29T01:56:01;97591.44;;;10.04;100.00
72525;BME280;60547;48.502;8.996;2023-04-29T01:58:26;97633.13;;;10.20;100.00
72525;BME280;60547;48.502;8.996;2023-04-29T02:00:53;97597.09;;;10.00;100.00
72525;BME280;60547;48.502;8.996;2023-04-29T02:03:19;97623.56;;;10.21;100.00
72525;BME280;60547;48.502;8.996;2023-04-29T02:05:44;97619.47;;;10.10;100.00
72525;BME280;60547;48.502;8.996;2023-04-29T02:08:10;97605.06;;;9.86;100.00
72525;BME280;60547;48.502;8.996;2023-04-29T02:10:35;97614.75;;;9.94;100.00
72525;BME280;60547;48.502;8.996;2023-04-29T02:13:01;97608.41;;;9.93;100.00
72525;BME280;60547;48.502;8.996;2023-04-29T02:15:27;97624.13;;;10.00;100.00
72525;BME280;60547;48.502;8.996;2023-04-29T02:17:53;97598.91;;;9.78;100.00
72525;BME280;60547;48.502;8.996;2023-04-29T02:20:19;97623.19;;;9.90;100.00
72525;BME280;60547;48.502;8.996;2023-04-29T02:22:45;97596.56;;;9.77;100.00
72525;BME280;60547;48.502;8.996;2023-04-29T02:25:11;97567.81;;;9.54;100.00
72525;BME280;60547;48.502;8.996;2023-04-29T02:27:36;97559.13;;;9.52;100.00
72525;BME280;60547;48.502;8.996;2023-04-29T02:30:02;97638.66;;;9.91;100.00
72525;BME280;60547;48.502;8.996;2023-04-29T02:32:29;97638.66;;;9.91;100.00
72525;BME280;60547;48.502;8.996;2023-04-29T02:34:55;97620.72;;;9.80;100.00
72525;BME280;60547;48.502;8.996;2023-04-29T02:37:21;97589.31;;;9.66;100.00
72525;BME280;60547;48.502;8.996;2023-04-29T02:39:46;97612.03;;;9.78;100.00
72525;BME280;60547;48.502;8.996;2023-04-29T02:42:12;97593.31;;;9.65;100.00
72525;BME280;60547;48.502;8.996;2023-04-29T02:44:37;97620.28;;;9.81;100.00
72525;BME280;60547;48.502;8.996;2023-04-29T02:47:03;97601.97;;;9.67;100.00
72525;BME280;60547;48.502;8.996;2023-04-29T02:49:29;97578.69;;;9.49;100.00
72525;BME280;60547;48.502;8.996;2023-04-29T02:51:54;97628.69;;;9.78;100.00
72525;BME280;60547;48.502;8.996;2023-04-29T02:54:20;97560.41;;;9.35;100.00
72525;BME280;60547;48.502;8.996;2023-04-29T02:56:46;97609.19;;;9.65;100.00
72525;BME280;60547;48.502;8.996;2023-04-29T02:59:11;97607.38;;;9.58;100.00
72525;BME280;60547;48.502;8.996;2023-04-29T03:01:37;97613.97;;;9.64;100.00
72525;BME280;60547;48.502;8.996;2023-04-29T03:04:04;97610.25;;;9.55;100.00
72525;BME280;60547;48.502;8.996;2023-04-29T03:06:29;97613.63;;;9.62;100.00
72525;BME280;60547;48.502;8.996;2023-04-29T03:08:55;97627.44;;;9.66;100.00
72525;BME280;60547;48.502;8.996;2023-04-29T03:11:21;97629.88;;;9.64;100.00
72525;BME280;60547;48.502;8.996;2023-04-29T03:13:49;97586.69;;;9.30;100.00
72525;BME280;60547;48.502;8.996;2023-04-29T03:16:15;97614.63;;;9.39;100.00
72525;BME280;60547;48.502;8.996;2023-04-29T03:18:42;97610.63;;;9.41;100.00
72525;BME280;60547;48.502;8.996;2023-04-29T03:21:08;97601.44;;;9.27;100.00
72525;BME280;60547;48.502;8.996;2023-04-29T03:23:33;97617.06;;;9.37;100.00
72525;BME280;60547;48.502;8.996;2023-04-29T03:25:59;97625.56;;;9.47;100.00
72525;BME280;60547;48.502;8.996;2023-04-29T03:28:26;97604.91;;;9.31;100.00
72525;BME280;60547;48.502;8.996;2023-04-29T03:30:51;97582.38;;;9.13;100.00
72525;BME280;60547;48.502;8.996;2023-04-29T03:33:17;97621.03;;;9.36;100.00
72525;BME280;60547;48.502;8.996;2023-04-29T03:35:43;97625.19;;;9.45;100.00
72525;BME280;60547;48.502;8.996;2023-04-29T03:38:10;97628.75;;;9.45;100.00
72525;BME280;60547;48.502;8.996;2023-04-29T03:40:36;97615.16;;;9.34;100.00
72525;BME280;60547;48.502;8.996;2023-04-29T03:43:02;97582.72;;;9.15;100.00
72525;BME280;60547;48.502;8.996;2023-04-29T03:45:28;97580.56;;;9.06;100.00
72525;BME280;60547;48.502;8.996;2023-04-29T03:47:54;97612.56;;;9.27;100.00
72525;BME280;60547;48.502;8.996;2023-04-29T03:50:19;97627.13;;;9.31;100.00
72525;BME280;60547;48.502;8.996;2023-04-29T03:52:45;97575.00;;;8.90;100.00
72525;BME280;60547;48.502;8.996;2023-04-29T03:55:11;97592.59;;;9.00;100.00
72525;BME280;60547;48.502;8.996;2023-04-29T03:57:37;97583.06;;;9.01;100.00
72525;BME280;60547;48.502;8.996;2023-04-29T04:00:03;97595.91;;;9.11;100.00
72525;BME280;60547;48.502;8.996;2023-04-29T04:02:29;97603.88;;;9.09;100.00
72525;BME280;60547;48.502;8.996;2023-04-29T04:04:54;97573.09;;;8.87;100.00
72525;BME280;60547;48.502;8.996;2023-04-29T04:07:20;97589.66;;;8.91;100.00
72525;BME280;60547;48.502;8.996;2023-04-29T04:09:46;97604.50;;;9.00;100.00
72525;BME280;60547;48.502;8.996;2023-04-29T04:12:11;97585.25;;;8.93;100.00
72525;BME280;60547;48.502;8.996;2023-04-29T04:14:37;97582.63;;;8.86;100.00
72525;BME280;60547;48.502;8.996;2023-04-29T04:17:02;97584.44;;;8.77;100.00
72525;BME280;60547;48.502;8.996;2023-04-29T04:19:29;97623.13;;;9.16;100.00
72525;BME280;60547;48.502;8.996;2023-04-29T04:21:55;97605.09;;;9.08;100.00
72525;BME280;60547;48.502;8.996;2023-04-29T04:24:23;97600.16;;;8.99;100.00
72525;BME280;60547;48.502;8.996;2023-04-29T04:26:49;97579.00;;;8.73;100.00
72525;BME280;60547;48.502;8.996;2023-04-29T04:29:15;97614.13;;;8.96;100.00
72525;BME280;60547;48.502;8.996;2023-04-29T04:31:40;97610.28;;;8.90;100.00
72525;BME280;60547;48.502;8.996;2023-04-29T04:34:06;97627.81;;;8.87;100.00
72525;BME280;60547;48.502;8.996;2023-04-29T04:36:31;97635.44;;;8.99;100.00
72525;BME280;60547;48.502;8.996;2023-04-29T04:38:57;97612.03;;;8.84;100.00
72525;BME280;60547;48.502;8.996;2023-04-29T04:41:23;97641.88;;;9.12;100.00
72525;BME280;60547;48.502;8.996;2023-04-29T04:43:48;97640.41;;;9.07;100.00
72525;BME280;60547;48.502;8.996;2023-04-29T04:46:15;97654.53;;;9.13;100.00
72525;BME280;60547;48.502;8.996;2023-04-29T04:48:41;97649.16;;;9.06;100.00
72525;BME280;60547;48.502;8.996;2023-04-29T04:51:08;97664.94;;;9.25;100.00
72525;BME280;60547;48.502;8.996;2023-04-29T04:53:34;97621.41;;;8.90;100.00
72525;BME280;60547;48.502;8.996;2023-04-29T04:56:00;97655.75;;;9.12;100.00
72525;BME280;60547;48.502;8.996;2023-04-29T04:58:26;97656.88;;;9.15;100.00
72525;BME280;60547;48.502;8.996;2023-04-29T05:00:51;97661.66;;;9.14;100.00
72525;BME280;60547;48.502;8.996;2023-04-29T05:03:17;97676.94;;;9.22;100.00
72525;BME280;60547;48.502;8.996;2023-04-29T05:05:42;97668.16;;;9.24;100.00
72525;BME280;60547;48.502;8.996;2023-04-29T05:08:08;97663.56;;;9.17;100.00
72525;BME280;60547;48.502;8.996;2023-04-29T05:10:36;97684.75;;;9.27;100.00
72525;BME280;60547;48.502;8.996;2023-04-29T05:13:02;97665.13;;;9.18;100.00
72525;BME280;60547;48.502;8.996;2023-04-29T05:15:27;97694.91;;;9.34;100.00
72525;BME280;60547;48.502;8.996;2023-04-29T05:17:53;97679.53;;;9.29;100.00
72525;BME280;60547;48.502;8.996;2023-04-29T05:20:19;97666.69;;;9.19;100.00
72525;BME280;60547;48.502;8.996;2023-04-29T05:22:45;97689.06;;;9.28;100.00
72525;BME280;60547;48.502;8.996;2023-04-29T05:25:11;97687.00;;;9.32;100.00
72525;BME280;60547;48.502;8.996;2023-04-29T05:27:36;97683.97;;;9.27;100.00
72525;BME280;60547;48.502;8.996;2023-04-29T05:30:03;97714.06;;;9.45;100.00
72525;BME280;60547;48.502;8.996;2023-04-29T05:32:28;97713.28;;;9.44;100.00
72525;BME280;60547;48.502;8.996;2023-04-29T05:34:54;97715.91;;;9.51;100.00
72525;BME280;60547;48.502;8.996;2023-04-29T05:37:19;97724.94;;;9.55;100.00
72525;BME280;60547;48.502;8.996;2023-04-29T05:39:45;97717.09;;;9.66;100.00
72525;BME280;60547;48.502;8.996;2023-04-29T05:42:10;97728.13;;;9.70;100.00
72525;BME280;60547;48.502;8.996;2023-04-29T05:44:36;97734.97;;;9.82;100.00
72525;BME280;60547;48.502;8.996;2023-04-29T05:47:01;97715.47;;;9.69;100.00
72525;BME280;60547;48.502;8.996;2023-04-29T05:49:27;97726.56;;;9.85;100.00
72525;BME280;60547;48.502;8.996;2023-04-29T05:51:52;97749.03;;;10.07;100.00
72525;BME280;60547;48.502;8.996;2023-04-29T05:54:18;97718.34;;;10.11;100.00
72525;BME280;60547;48.502;8.996;2023-04-29T05:56:43;97752.72;;;10.33;100.00
72525;BME280;60547;48.502;8.996;2023-04-29T05:59:09;97757.66;;;10.42;100.00
72525;BME280;60547;48.502;8.996;2023-04-29T06:01:34;97771.16;;;10.85;100.00
72525;BME280;60547;48.502;8.996;2023-04-29T06:04:00;97759.19;;;11.26;99.29
72525;BME280;60547;48.502;8.996;2023-04-29T06:06:25;97771.03;;;11.81;97.33
72525;BME280;60547;48.502;8.996;2023-04-29T06:08:51;97761.75;;;12.31;94.11
72525;BME280;60547;48.502;8.996;2023-04-29T06:11:17;97774.84;;;12.56;93.11
72525;BME280;60547;48.502;8.996;2023-04-29T06:13:43;97777.66;;;12.78;91.33
72525;BME280;60547;48.502;8.996;2023-04-29T06:16:08;97785.69;;;13.19;89.59
72525;BME280;60547;48.502;8.996;2023-04-29T06:18:34;97783.41;;;13.27;89.37
72525;BME280;60547;48.502;8.996;2023-04-29T06:21:00;97770.50;;;13.20;88.41
72525;BME280;60547;48.502;8.996;2023-04-29T06:23:25;97802.16;;;13.48;87.78
72525;BME280;60547;48.502;8.996;2023-04-29T06:25:51;97792.13;;;13.60;88.14
72525;BME280;60547;48.502;8.996;2023-04-29T06:28:17;97789.63;;;13.62;88.49
72525;BME280;60547;48.502;8.996;2023-04-29T06:30:43;97798.06;;;13.71;87.77
72525;BME280;60547;48.502;8.996;2023-04-29T06:33:10;97793.28;;;13.41;90.02
72525;BME280;60547;48.502;8.996;2023-04-29T06:35:38;97797.72;;;13.60;88.55
72525;BME280;60547;48.502;8.996;2023-04-29T06:38:05;97800.91;;;13.80;88.63
72525;BME280;60547;48.502;8.996;2023-04-29T06:40:32;97791.88;;;13.76;88.93
72525;BME280;60547;48.502;8.996;2023-04-29T06:42:57;97800.22;;;13.67;89.93
72525;BME280;60547;48.502;8.996;2023-04-29T06:45:23;97795.69;;;13.61;91.28
72525;BME280;60547;48.502;8.996;2023-04-29T06:47:49;97788.22;;;13.57;90.72
72525;BME280;60547;48.502;8.996;2023-04-29T06:50:15;97805.13;;;13.94;86.35
72525;BME280;60547;48.502;8.996;2023-04-29T06:52:40;97811.38;;;13.98;87.90
72525;BME280;60547;48.502;8.996;2023-04-29T06:55:06;97806.34;;;13.84;88.38
72525;BME280;60547;48.502;8.996;2023-04-29T06:57:32;97804.84;;;13.61;87.64
72525;BME280;60547;48.502;8.996;2023-04-29T06:59:58;97799.97;;;13.43;84.03
72525;BME280;60547;48.502;8.996;2023-04-29T07:02:23;97811.03;;;13.25;84.02
72525;BME280;60547;48.502;8.996;2023-04-29T07:04:51;97819.75;;;13.27;83.23
72525;BME280;60547;48.502;8.996;2023-04-29T07:07:16;97801.28;;;13.30;82.95
72525;BME280;60547;48.502;8.996;2023-04-29T07:09:42;97823.91;;;13.22;84.56
72525;BME280;60547;48.502;8.996;2023-04-29T07:12:07;97805.78;;;13.27;85.39
72525;BME280;60547;48.502;8.996;2023-04-29T07:14:33;97812.66;;;13.13;84.93
72525;BME280;60547;48.502;8.996;2023-04-29T07:16:58;97807.50;;;13.12;83.20
72525;BME280;60547;48.502;8.996;2023-04-29T07:19:24;97823.81;;;13.13;85.69
72525;BME280;60547;48.502;8.996;2023-04-29T07:21:50;97820.66;;;13.24;83.37
72525;BME280;60547;48.502;8.996;2023-04-29T07:24:15;97837.03;;;13.35;82.24
72525;BME280;60547;48.502;8.996;2023-04-29T07:26:42;97829.19;;;13.51;80.42
72525;BME280;60547;48.502;8.996;2023-04-29T07:29:09;97813.00;;;13.77;80.31
72525;BME280;60547;48.502;8.996;2023-04-29T07:31:34;97812.16;;;13.99;78.66
72525;BME280;60547;48.502;8.996;2023-04-29T07:34:00;97826.06;;;13.80;79.89
72525;BME280;60547;48.502;8.996;2023-04-29T07:36:25;97832.25;;;13.75;80.90
72525;BME280;60547;48.502;8.996;2023-04-29T07:38:53;97832.00;;;13.51;79.40
72525;BME280;60547;48.502;8.996;2023-04-29T07:41:19;97827.09;;;13.34;80.78
72525;BME280;60547;48.502;8.996;2023-04-29T07:43:45;97828.22;;;13.76;79.92
72525;BME280;60547;48.502;8.996;2023-04-29T07:46:10;97829.31;;;14.19;79.51
72525;BME280;60547;48.502;8.996;2023-04-29T07:48:37;97841.47;;;14.34;78.96
72525;BME280;60547;48.502;8.996;2023-04-29T07:51:04;97824.03;;;14.21;76.75
72525;BME280;60547;48.502;8.996;2023-04-29T07:53:29;97832.72;;;14.23;75.84
72525;BME280;60547;48.502;8.996;2023-04-29T07:55:55;97833.16;;;14.12;75.47
72525;BME280;60547;48.502;8.996;2023-04-29T07:58:20;97827.75;;;14.18;74.05
72525;BME280;60547;48.502;8.996;2023-04-29T08:00:46;97840.53;;;14.28;75.36
72525;BME280;60547;48.502;8.996;2023-04-29T08:03:12;97831.31;;;14.18;74.53
72525;BME280;60547;48.502;8.996;2023-04-29T08:05:37;97836.00;;;14.21;73.59
72525;BME280;60547;48.502;8.996;2023-04-29T08:08:03;97839.59;;;14.31;73.24
72525;BME280;60547;48.502;8.996;2023-04-29T08:10:29;97843.78;;;14.27;72.82
72525;BME280;60547;48.502;8.996;2023-04-29T08:12:54;97838.13;;;14.58;70.63
72525;BME280;60547;48.502;8.996;2023-04-29T08:15:20;97818.50;;;14.67;71.97
72525;BME280;60547;48.502;8.996;2023-04-29T08:17:45;97835.31;;;14.67;70.56
72525;BME280;60547;48.502;8.996;2023-04-29T08:20:11;97828.41;;;14.40;69.70
72525;BME280;60547;48.502;8.996;2023-04-29T08:22:37;97838.13;;;14.67;70.77
72525;BME280;60547;48.502;8.996;2023-04-29T08:25:03;97832.50;;;14.58;69.95
72525;BME280;60547;48.502;8.996;2023-04-29T08:27:30;97826.75;;;14.89;69.68
72525;BME280;60547;48.502;8.996;2023-04-29T08:29:55;97845.28;;;15.13;69.21
72525;BME280;60547;48.502;8.996;2023-04-29T08:32:21;97837.81;;;15.10;68.44
72525;BME280;60547;48.502;8.996;2023-04-29T08:34:50;97843.84;;;15.36;66.11
72525;BME280;60547;48.502;8.996;2023-04-29T08:37:15;97831.88;;;15.17;67.15
72525;BME280;60547;48.502;8.996;2023-04-29T08:39:40;97839.97;;;15.15;68.82
72525;BME280;60547;48.502;8.996;2023-04-29T08:42:13;97843.25;;;14.96;70.94
72525;BME280;60547;48.502;8.996;2023-04-29T08:44:39;97852.28;;;14.91;68.13
72525;BME280;60547;48.502;8.996;2023-04-29T08:47:05;97834.22;;;14.82;68.27
72525;BME280;60547;48.502;8.996;2023-04-29T08:49:31;97836.25;;;14.91;69.26
72525;BME280;60547;48.502;8.996;2023-04-29T08:51:58;97845.28;;;14.95;71.69
72525;BME280;60547;48.502;8.996;2023-04-29T08:54:24;97839.84;;;14.82;67.79
72525;BME280;60547;48.502;8.996;2023-04-29T08:56:50;97849.03;;;14.92;69.62
72525;BME280;60547;48.502;8.996;2023-04-29T08:59:17;97844.97;;;14.84;69.54
72525;BME280;60547;48.502;8.996;2023-04-29T09:01:45;97847.00;;;15.02;69.44
72525;BME280;60547;48.502;8.996;2023-04-29T09:04:36;97842.91;;;15.30;67.88
72525;BME280;60547;48.502;8.996;2023-04-29T09:07:06;97838.06;;;15.40;69.36
72525;BME280;60547;48.502;8.996;2023-04-29T09:09:32;97834.63;;;15.45;67.80
72525;BME280;60547;48.502;8.996;2023-04-29T09:11:57;97823.09;;;15.52;67.61
72525;BME280;60547;48.502;8.996;2023-04-29T09:14:23;97829.19;;;15.93;69.20
72525;BME280;60547;48.502;8.996;2023-04-29T09:16:49;97838.44;;;16.17;66.81
72525;BME280;60547;48.502;8.996;2023-04-29T09:19:29;97832.03;;;16.17;64.93
72525;BME280;60547;48.502;8.996;2023-04-29T09:21:56;97826.06;;;16.24;64.56
72525;BME280;60547;48.502;8.996;2023-04-29T09:24:26;97841.22;;;16.50;64.60
72525;BME280;60547;48.502;8.996;2023-04-29T09:26:52;97836.06;;;16.48;65.17
72525;BME280;60547;48.502;8.996;2023-04-29T09:29:18;97815.75;;;16.30;65.72
72525;BME280;60547;48.502;8.996;2023-04-29T09:31:44;97843.78;;;16.06;66.17
72525;BME280;60547;48.502;8.996;2023-04-29T09:34:10;97830.75;;;15.94;65.98
72525;BME280;60547;48.502;8.996;2023-04-29T09:36:45;97834.81;;;15.93;64.78
72525;BME280;60547;48.502;8.996;2023-04-29T09:39:16;97843.09;;;16.20;63.97
72525;BME280;60547;48.502;8.996;2023-04-29T09:44:18;97845.69;;;16.00;66.80
72525;BME280;60547;48.502;8.996;2023-04-29T09:46:54;97842.06;;;15.75;64.47
72525;BME280;60547;48.502;8.996;2023-04-29T09:49:27;97845.06;;;15.63;67.19
72525;BME280;60547;48.502;8.996;2023-04-29T09:51:57;97837.91;;;15.34;68.43
72525;BME280;60547;48.502;8.996;2023-04-29T09:54:27;97841.22;;;15.24;67.75
72525;BME280;60547;48.502;8.996;2023-04-29T09:56:54;97838.63;;;15.71;68.04
72525;BME280;60547;48.502;8.996;2023-04-29T09:59:21;97842.53;;;15.74;66.77
72525;BME280;60547;48.502;8.996;2023-04-29T10:01:48;97815.22;;;15.83;62.01
72525;BME280;60547;48.502;8.996;2023-04-29T10:04:15;97840.41;;;16.26;61.06
72525;BME280;60547;48.502;8.996;2023-04-29T10:06:44;97843.94;;;16.68;62.49
72525;BME280;60547;48.502;8.996;2023-04-29T10:09:12;97827.69;;;16.87;58.82
72525;BME280;60547;48.502;8.996;2023-04-29T10:11:41;97817.47;;;17.14;60.07
72525;BME280;60547;48.502;8.996;2023-04-29T10:14:14;97822.53;;;17.54;59.53
72525;BME280;60547;48.502;8.996;2023-04-29T10:19:34;97838.97;;;17.70;56.03
72525;BME280;60547;48.502;8.996;2023-04-29T10:22:18;97825.34;;;17.83;56.90
72525;BME280;60547;48.502;8.996;2023-04-29T10:24:47;97826.22;;;17.45;56.53
72525;BME280;60547;48.502;8.996;2023-04-29T10:27:14;97818.84;;;17.92;56.25
72525;BME280;60547;48.502;8.996;2023-04-29T10:29:40;97819.56;;;18.07;55.69
72525;BME280;60547;48.502;8.996;2023-04-29T10:32:08;97830.06;;;18.06;54.57
72525;BME280;60547;48.502;8.996;2023-04-29T10:34:36;97830.31;;;17.73;53.84
72525;BME280;60547;48.502;8.996;2023-04-29T10:37:06;97825.25;;;17.63;53.46
72525;BME280;60547;48.502;8.996;2023-04-29T10:40:18;97812.44;;;17.47;53.44
72525;BME280;60547;48.502;8.996;2023-04-29T10:42:49;97823.50;;;17.65;56.81
72525;BME280;60547;48.502;8.996;2023-04-29T10:53:18;97817.69;;;17.69;54.84
72525;BME280;60547;48.502;8.996;2023-04-29T10:55:52;97805.28;;;18.11;55.77
72525;BME280;60547;48.502;8.996;2023-04-29T10:58:44;97815.91;;;18.01;54.54
72525;BME280;60547;48.502;8.996;2023-04-29T11:01:14;97817.91;;;18.15;52.04
72525;BME280;60547;48.502;8.996;2023-04-29T11:04:04;97827.94;;;18.36;51.98
72525;BME280;60547;48.502;8.996;2023-04-29T11:11:48;97815.44;;;18.78;52.56
72525;BME280;60547;48.502;8.996;2023-04-29T11:14:15;97798.56;;;19.30;53.55
72525;BME280;60547;48.502;8.996;2023-04-29T11:17:07;97799.00;;;19.75;50.12
72525;BME280;60547;48.502;8.996;2023-04-29T11:19:35;97781.41;;;19.91;51.21
72525;BME280;60547;48.502;8.996;2023-04-29T11:25:06;97796.59;;;19.99;47.13
72525;BME280;60547;48.502;8.996;2023-04-29T11:27:35;97799.91;;;19.34;50.95
72525;BME280;60547;48.502;8.996;2023-04-29T11:30:03;97800.44;;;19.64;50.87
72525;BME280;60547;48.502;8.996;2023-04-29T11:32:32;97793.78;;;19.67;48.17
72525;BME280;60547;48.502;8.996;2023-04-29T11:35:12;97801.03;;;19.48;50.75
72525;BME280;60547;48.502;8.996;2023-04-29T11:37:39;97805.38;;;18.71;51.98
72525;BME280;60547;48.502;8.996;2023-04-29T11:40:06;97805.25;;;18.46;50.95
72525;BME280;60547;48.502;8.996;2023-04-29T11:42:39;97799.56;;;18.81;50.56
72525;BME280;60547;48.502;8.996;2023-04-29T11:45:06;97803.34;;;18.37;50.92
72525;BME280;60547;48.502;8.996;2023-04-29T11:47:31;97801.06;;;18.76;50.07
72525;BME280;60547;48.502;8.996;2023-04-29T11:50:05;97812.25;;;18.50;50.72
72525;BME280;60547;48.502;8.996;2023-04-29T11:52:33;97805.19;;;18.60;51.20
72525;BME280;60547;48.502;8.996;2023-04-29T11:54:59;97790.69;;;18.88;51.51
72525;BME280;60547;48.502;8.996;2023-04-29T11:57:25;97796.25;;;19.28;49.86
72525;BME280;60547;48.502;8.996;2023-04-29T11:59:51;97796.69;;;19.47;50.13
72525;BME280;60547;48.502;8.996;2023-04-29T12:02:21;97792.84;;;20.13;47.92
72525;BME280;60547;48.502;8.996;2023-04-29T12:04:46;97793.31;;;20.49;46.71
72525;BME280;60547;48.502;8.996;2023-04-29T12:07:15;97807.31;;;20.69;46.58
72525;BME280;60547;48.502;8.996;2023-04-29T12:09:44;97805.16;;;20.10;46.26
72525;BME280;60547;48.502;8.996;2023-04-29T12:12:10;97806.78;;;19.85;47.70
72525;BME280;60547;48.502;8.996;2023-04-29T12:14:37;97804.56;;;20.00;49.58
72525;BME280;60547;48.502;8.996;2023-04-29T12:17:04;97805.72;;;19.83;48.11
72525;BME280;60547;48.502;8.996;2023-04-29T12:19:29;97800.78;;;20.09;48.42
72525;BME280;60547;48.502;8.996;2023-04-29T12:21:59;97809.94;;;20.36;47.41
72525;BME280;60547;48.502;8.996;2023-04-29T12:24:25;97805.69;;;20.51;46.46
72525;BME280;60547;48.502;8.996;2023-04-29T12:26:51;97802.88;;;20.57;47.05
72525;BME280;60547;48.502;8.996;2023-04-29T12:29:20;97792.72;;;20.33;46.51
72525;BME280;60547;48.502;8.996;2023-04-29T12:31:49;97800.25;;;20.48;45.95
72525;BME280;60547;48.502;8.996;2023-04-29T12:34:15;97790.69;;;19.97;46.96
72525;BME280;60547;48.502;8.996;2023-04-29T12:36:41;97809.19;;;19.66;47.42
72525;BME280;60547;48.502;8.996;2023-04-29T12:39:09;97808.19;;;19.44;49.70
72525;BME280;60547;48.502;8.996;2023-04-29T12:41:36;97806.88;;;18.32;49.76
72525;BME280;60547;48.502;8.996;2023-04-29T12:44:02;97794.34;;;18.53;52.30
72525;BME280;60547;48.502;8.996;2023-04-29T12:46:33;97811.41;;;18.85;51.64
72525;BME280;60547;48.502;8.996;2023-04-29T12:49:01;97816.84;;;18.68;53.04
72525;BME280;60547;48.502;8.996;2023-04-29T12:51:29;97821.81;;;18.58;51.75
72525;BME280;60547;48.502;8.996;2023-04-29T12:53:57;97805.28;;;18.66;50.29
72525;BME280;60547;48.502;8.996;2023-04-29T12:56:23;97811.03;;;18.57;50.25
72525;BME280;60547;48.502;8.996;2023-04-29T12:58:49;97814.66;;;19.24;50.28
72525;BME280;60547;48.502;8.996;2023-04-29T13:01:14;97816.06;;;19.34;48.25
72525;BME280;60547;48.502;8.996;2023-04-29T13:03:40;97825.22;;;19.29;49.35
72525;BME280;60547;48.502;8.996;2023-04-29T13:06:06;97820.69;;;19.11;49.07
72525;BME280;60547;48.502;8.996;2023-04-29T13:08:33;97821.25;;;19.15;49.82
72525;BME280;60547;48.502;8.996;2023-04-29T13:10:58;97831.16;;;18.85;50.63
72525;BME280;60547;48.502;8.996;2023-04-29T13:13:24;97828.41;;;18.70;49.94
72525;BME280;60547;48.502;8.996;2023-04-29T13:15:49;97825.69;;;18.40;50.52
72525;BME280;60547;48.502;8.996;2023-04-29T13:18:15;97826.94;;;18.19;51.46
72525;BME280;60547;48.502;8.996;2023-04-29T13:20:41;97815.38;;;18.17;52.35
72525;BME280;60547;48.502;8.996;2023-04-29T13:23:06;97822.84;;;18.76;52.71
72525;BME280;60547;48.502;8.996;2023-04-29T13:25:32;97818.91;;;19.14;50.48